sensor_id;sensor_type;location;lat;lon;timestamp;pressure;altitude;pressure_sealevel;temperature;humidity
58367;BME280;57745;42.524;12.052;2022-11-20T00:00:39;95763.84;;;18.61;54.42
58367;BME280;57745;42.524;12.052;2022-11-20T00:03:04;95770.09;;;18.61;54.31
58367;BME280;57745;42.524;12.052;2022-11-20T00:05:31;95780.81;;;18.59;54.51
58367;BME280;57745;42.524;12.052;2022-11-20T00:07:57;95787.06;;;18.60;54.38
58367;BME280;57745;42.524;12.052;2022-11-20T00:10:22;95782.09;;;18.64;54.13
58367;BME280;57745;42.524;12.052;2022-11-20T00:12:47;95776.84;;;18.60;54.17
58367;BME280;57745;42.524;12.052;2022-11-20T00:15:12;95781.56;;;18.60;54.25
58367;BME280;57745;42.524;12.052;2022-11-20T00:17:38;95791.81;;;18.59;54.17
58367;BME280;57745;42.524;12.052;2022-11-20T00:20:03;95780.03;;;18.53;54.26
58367;BME280;57745;42.524;12.052;2022-11-20T00:22:28;95786.31;;;18.59;53.93
58367;BME280;57745;42.524;12.052;2022-11-20T00:24:54;95787.25;;;18.56;54.14
58367;BME280;57745;42.524;12.052;2022-11-20T00:27:19;95790.25;;;18.47;54.28
58367;BME280;57745;42.524;12.052;2022-11-20T00:29:44;95796.50;;;18.53;54.07
58367;BME280;57745;42.524;12.052;2022-11-20T00:32:09;95801.50;;;18.55;53.78
58367;BME280;57745;42.524;12.052;2022-11-20T00:34:35;95803.50;;;18.54;53.78
58367;BME280;57745;42.524;12.052;2022-11-20T00:37:00;95811.53;;;18.58;53.74
58367;BME280;57745;42.524;12.052;2022-11-20T00:39:25;95802.25;;;18.50;54.00
58367;BME280;57745;42.524;12.052;2022-11-20T00:41:51;95804.69;;;18.42;54.09
58367;BME280;57745;42.524;12.052;2022-11-20T00:44:16;95797.28;;;18.54;53.43
58367;BME280;57745;42.524;12.052;2022-11-20T00:46:41;95788.00;;;18.51;53.72
58367;BME280;57745;42.524;12.052;2022-11-20T00:49:06;95787.75;;;18.49;53.86
58367;BME280;57745;42.524;12.052;2022-11-20T00:51:32;95780.50;;;18.46;53.75
58367;BME280;57745;42.524;12.052;2022-11-20T00:53:57;95781.50;;;18.49;53.53
58367;BME280;57745;42.524;12.052;2022-11-20T00:56:24;95790.75;;;18.57;53.31
58367;BME280;57745;42.524;12.052;2022-11-20T00:58:50;95794.75;;;18.56;53.27
58367;BME280;57745;42.524;12.052;2022-11-20T01:01:17;95799.72;;;18.41;53.98
58367;BME280;57745;42.524;12.052;2022-11-20T01:03:44;95803.22;;;18.47;53.46
58367;BME280;57745;42.524;12.052;2022-11-20T01:06:14;95811.28;;;18.61;52.95
58367;BME280;57745;42.524;12.052;2022-11-20T01:08:40;95811.53;;;18.58;53.13
58367;BME280;57745;42.524;12.052;2022-11-20T01:11:06;95812.03;;;18.62;53.06
58367;BME280;57745;42.524;12.052;2022-11-20T01:13:32;95825.50;;;18.60;52.95
58367;BME280;57745;42.524;12.052;2022-11-20T01:16:04;95823.72;;;18.51;53.28
58367;BME280;57745;42.524;12.052;2022-11-20T01:18:29;95828.25;;;18.60;52.71
58367;BME280;57745;42.524;12.052;2022-11-20T01:20:54;95822.44;;;18.47;53.14
58367;BME280;57745;42.524;12.052;2022-11-20T01:23:20;95823.22;;;18.53;52.93
58367;BME280;57745;42.524;12.052;2022-11-20T01:25:45;95820.94;;;18.46;53.14
58367;BME280;57745;42.524;12.052;2022-11-20T01:28:10;95840.19;;;18.57;52.79
58367;BME280;57745;42.524;12.052;2022-11-20T01:30:36;95834.22;;;18.53;53.02
58367;BME280;57745;42.524;12.052;2022-11-20T01:33:01;95843.69;;;18.57;52.66
58367;BME280;57745;42.524;12.052;2022-11-20T01:35:26;95845.69;;;18.51;52.97
58367;BME280;57745;42.524;12.052;2022-11-20T01:37:52;95845.41;;;18.49;52.93
58367;BME280;57745;42.524;12.052;2022-11-20T01:40:17;95844.47;;;18.58;52.42
58367;BME280;57745;42.524;12.052;2022-11-20T01:42:47;95845.97;;;18.59;52.46
58367;BME280;57745;42.524;12.052;2022-11-20T01:45:46;95848.44;;;18.57;52.47
58367;BME280;57745;42.524;12.052;2022-11-20T01:48:17;95851.13;;;18.46;52.86
58367;BME280;57745;42.524;12.052;2022-11-20T01:50:43;95844.94;;;18.51;52.55
58367;BME280;57745;42.524;12.052;2022-11-20T01:53:10;95838.47;;;18.54;52.35
58367;BME280;57745;42.524;12.052;2022-11-20T01:55:45;95848.13;;;18.44;52.72
58367;BME280;57745;42.524;12.052;2022-11-20T01:58:13;95844.94;;;18.51;52.50
58367;BME280;57745;42.524;12.052;2022-11-20T02:00:38;95838.47;;;18.54;52.27
58367;BME280;57745;42.524;12.052;2022-11-20T02:03:09;95834.44;;;18.55;52.19
58367;BME280;57745;42.524;12.052;2022-11-20T02:05:55;95842.63;;;18.38;52.82
58367;BME280;57745;42.524;12.052;2022-11-20T02:08:23;95839.44;;;18.51;52.11
58367;BME280;57745;42.524;12.052;2022-11-20T02:10:48;95839.69;;;18.53;52.09
58367;BME280;57745;42.524;12.052;2022-11-20T02:13:13;95841.91;;;18.49;52.27
58367;BME280;57745;42.524;12.052;2022-11-20T02:15:58;95844.88;;;18.40;52.73
58367;BME280;57745;42.524;12.052;2022-11-20T02:18:24;95849.13;;;18.46;52.19
58367;BME280;57745;42.524;12.052;2022-11-20T02:20:58;95848.44;;;18.51;52.16
58367;BME280;57745;42.524;12.052;2022-11-20T02:25:54;95842.94;;;18.57;51.85
58367;BME280;57745;42.524;12.052;2022-11-20T02:28:20;95849.66;;;18.50;52.09
58367;BME280;57745;42.524;12.052;2022-11-20T02:30:46;95846.38;;;18.46;52.17
58367;BME280;57745;42.524;12.052;2022-11-20T02:33:12;95838.19;;;18.52;51.84
58367;BME280;57745;42.524;12.052;2022-11-20T02:35:44;95829.44;;;18.48;51.94
58367;BME280;57745;42.524;12.052;2022-11-20T02:38:10;95822.44;;;18.41;52.04
58367;BME280;57745;42.524;12.052;2022-11-20T02:40:35;95828.91;;;18.44;51.88
58367;BME280;57745;42.524;12.052;2022-11-20T02:43:01;95818.19;;;18.46;51.83
58367;BME280;57745;42.524;12.052;2022-11-20T02:45:26;95823.69;;;18.46;51.83
58367;BME280;57745;42.524;12.052;2022-11-20T02:47:51;95819.94;;;18.49;51.63
58367;BME280;57745;42.524;12.052;2022-11-20T02:50:17;95820.69;;;18.49;51.54
58367;BME280;57745;42.524;12.052;2022-11-20T02:52:42;95819.72;;;18.52;51.61
58367;BME280;57745;42.524;12.052;2022-11-20T02:55:08;95834.91;;;18.48;51.57
58367;BME280;57745;42.524;12.052;2022-11-20T02:57:33;95826.91;;;18.39;51.58
58367;BME280;57745;42.524;12.052;2022-11-20T02:59:58;95827.16;;;18.41;51.73
58367;BME280;57745;42.524;12.052;2022-11-20T03:02:24;95831.16;;;18.45;51.47
58367;BME280;57745;42.524;12.052;2022-11-20T03:04:49;95823.69;;;18.46;51.47
58367;BME280;57745;42.524;12.052;2022-11-20T03:07:14;95825.41;;;18.43;51.58
58367;BME280;57745;42.524;12.052;2022-11-20T03:09:40;95826.19;;;18.49;51.33
58367;BME280;57745;42.524;12.052;2022-11-20T03:12:05;95824.41;;;18.41;51.57
58367;BME280;57745;42.524;12.052;2022-11-20T03:14:30;95814.22;;;18.52;51.27
58367;BME280;57745;42.524;12.052;2022-11-20T03:16:56;95815.44;;;18.46;51.46
58367;BME280;57745;42.524;12.052;2022-11-20T03:19:22;95811.19;;;18.45;51.45
58367;BME280;57745;42.524;12.052;2022-11-20T03:21:47;95807.94;;;18.41;51.47
58367;BME280;57745;42.524;12.052;2022-11-20T03:24:12;95812.44;;;18.44;51.40
58367;BME280;57745;42.524;12.052;2022-11-20T03:26:38;95819.19;;;18.48;51.18
58367;BME280;57745;42.524;12.052;2022-11-20T03:29:04;95813.72;;;18.48;51.23
58367;BME280;57745;42.524;12.052;2022-11-20T03:31:30;95811.44;;;18.47;51.21
58367;BME280;57745;42.524;12.052;2022-11-20T03:33:56;95815.66;;;18.42;51.33
58367;BME280;57745;42.524;12.052;2022-11-20T03:36:22;95812.91;;;18.42;51.48
58367;BME280;57745;42.524;12.052;2022-11-20T03:38:47;95811.19;;;18.39;51.45
58367;BME280;57745;42.524;12.052;2022-11-20T03:41:18;95818.22;;;18.51;51.12
58367;BME280;57745;42.524;12.052;2022-11-20T03:43:47;95819.69;;;18.47;51.27
58367;BME280;57745;42.524;12.052;2022-11-20T03:46:13;95819.16;;;18.43;51.14
58367;BME280;57745;42.524;12.052;2022-11-20T03:48:38;95827.16;;;18.46;51.21
58367;BME280;57745;42.524;12.052;2022-11-20T03:51:07;95833.91;;;18.40;51.31
58367;BME280;57745;42.524;12.052;2022-11-20T03:53:33;95832.66;;;18.41;50.83
58367;BME280;57745;42.524;12.052;2022-11-20T03:55:58;95832.88;;;18.43;51.21
58367;BME280;57745;42.524;12.052;2022-11-20T03:58:23;95834.88;;;18.42;51.13
58367;BME280;57745;42.524;12.052;2022-11-20T04:00:49;95832.88;;;18.37;51.12
58367;BME280;57745;42.524;12.052;2022-11-20T04:03:14;95836.38;;;18.38;51.20
58367;BME280;57745;42.524;12.052;2022-11-20T04:05:39;95828.38;;;18.34;51.32
58367;BME280;57745;42.524;12.052;2022-11-20T04:08:05;95833.66;;;18.43;50.92
58367;BME280;57745;42.524;12.052;2022-11-20T04:10:30;95828.91;;;18.38;51.10
58367;BME280;57745;42.524;12.052;2022-11-20T04:12:55;95835.41;;;18.41;50.98
58367;BME280;57745;42.524;12.052;2022-11-20T04:15:20;95827.16;;;18.41;51.06
58367;BME280;57745;42.524;12.052;2022-11-20T04:17:46;95834.88;;;18.37;51.24
58367;BME280;57745;42.524;12.052;2022-11-20T04:20:11;95829.16;;;18.40;51.04
58367;BME280;57745;42.524;12.052;2022-11-20T05:03:53;95864.59;;;18.38;50.32
58367;BME280;57745;42.524;12.052;2022-11-20T05:18:48;95869.25;;;18.26;50.40
58367;BME280;57745;42.524;12.052;2022-11-20T05:51:16;95912.94;;;18.30;49.65
58367;BME280;57745;42.524;12.052;2022-11-20T06:05:53;95913.19;;;18.26;49.69
58367;BME280;57745;42.524;12.052;2022-11-20T06:20:29;95915.16;;;18.26;49.46
58367;BME280;57745;42.524;12.052;2022-11-20T06:50:20;95929.56;;;18.15;48.97
58367;BME280;57745;42.524;12.052;2022-11-20T07:04:57;95935.09;;;18.21;49.07
58367;BME280;57745;42.524;12.052;2022-11-20T07:19:33;95951.47;;;18.10;48.84
58367;BME280;57745;42.524;12.052;2022-11-20T07:34:10;95968.78;;;18.21;48.94
58367;BME280;57745;42.524;12.052;2022-11-20T07:48:55;95997.91;;;18.13;48.97
58367;BME280;57745;42.524;12.052;2022-11-20T07:51:21;96010.91;;;18.18;48.98
58367;BME280;57745;42.524;12.052;2022-11-20T08:06:01;96025.34;;;18.13;49.32
58367;BME280;57745;42.524;12.052;2022-11-20T08:20:38;96038.88;;;18.17;49.12
58367;BME280;57745;42.524;12.052;2022-11-20T08:35:14;96040.31;;;18.12;49.36
58367;BME280;57745;42.524;12.052;2022-11-20T08:49:51;96058.84;;;18.17;49.16
58367;BME280;57745;42.524;12.052;2022-11-20T09:04:28;96077.88;;;18.26;49.13
58367;BME280;57745;42.524;12.052;2022-11-20T09:19:04;96075.53;;;17.93;49.84
58367;BME280;57745;42.524;12.052;2022-11-20T10:04:23;96076.00;;;18.12;49.02
58367;BME280;57745;42.524;12.052;2022-11-20T11:21:33;96050.63;;;18.23;48.93
58367;BME280;57745;42.524;12.052;2022-11-20T11:51:28;96069.56;;;17.95;49.25
58367;BME280;57745;42.524;12.052;2022-11-20T11:53:57;96073.34;;;17.98;49.18
58367;BME280;57745;42.524;12.052;2022-11-20T12:20:15;96058.06;;;18.17;48.57
58367;BME280;57745;42.524;12.052;2022-11-20T13:06:16;96046.66;;;18.24;48.24
58367;BME280;57745;42.524;12.052;2022-11-20T13:20:53;96038.59;;;18.15;48.30
58367;BME280;57745;42.524;12.052;2022-11-20T14:06:00;96031.06;;;18.10;47.67
58367;BME280;57745;42.524;12.052;2022-11-20T14:20:39;96026.41;;;18.21;47.44
58367;BME280;57745;42.524;12.052;2022-11-20T14:23:04;96014.03;;;18.06;47.82
58367;BME280;57745;42.524;12.052;2022-11-20T14:34:39;96028.09;;;18.13;47.58
58367;BME280;57745;42.524;12.052;2022-11-20T14:49:20;96039.56;;;18.12;47.07
58367;BME280;57745;42.524;12.052;2022-11-20T18:49:36;96208.63;;;18.04;43.63
58367;BME280;57745;42.524;12.052;2022-11-20T19:34:36;96231.53;;;18.01;42.73
58367;BME280;57745;42.524;12.052;2022-11-20T20:34:51;96308.84;;;17.99;41.63
58367;BME280;57745;42.524;12.052;2022-11-20T20:49:41;96335.91;;;17.91;41.25
58367;BME280;57745;42.524;12.052;2022-11-20T21:19:52;96314.22;;;17.93;41.07
58367;BME280;57745;42.524;12.052;2022-11-20T21:34:42;96303.75;;;17.92;40.87
58367;BME280;57745;42.524;12.052;2022-11-20T23:22:12;96263.00;;;17.85;40.41
58367;BME280;57745;42.524;12.052;2022-11-20T23:24:38;96262.16;;;17.79;40.37
58367;BME280;57745;42.524;12.052;2022-11-20T23:27:03;96270.66;;;17.81;40.60
